sensor_id;sensor_type;location;lat;lon;timestamp;P1;durP1;ratioP1;P2;durP2;ratioP2
71513;SDS011;59335;46.652;21.272;2023-06-10T00:00:44;5.50;;;2.87;;
71513;SDS011;59335;46.652;21.272;2023-06-10T00:03:47;5.75;;;2.97;;
71513;SDS011;59335;46.652;21.272;2023-06-10T00:06:50;5.03;;;2.80;;
71513;SDS011;59335;46.652;21.272;2023-06-10T00:09:53;5.82;;;3.00;;
71513;SDS011;59335;46.652;21.272;2023-06-10T00:12:57;5.50;;;2.90;;
71513;SDS011;59335;46.652;21.272;2023-06-10T00:16:00;4.70;;;2.83;;
71513;SDS011;59335;46.652;21.272;2023-06-10T00:19:03;4.72;;;2.75;;
71513;SDS011;59335;46.652;21.272;2023-06-10T00:22:06;5.28;;;2.88;;
71513;SDS011;59335;46.652;21.272;2023-06-10T00:25:09;6.63;;;3.08;;
71513;SDS011;59335;46.652;21.272;2023-06-10T00:28:13;5.38;;;2.92;;
71513;SDS011;59335;46.652;21.272;2023-06-10T00:31:16;5.23;;;2.97;;
71513;SDS011;59335;46.652;21.272;2023-06-10T00:34:19;5.47;;;2.95;;
71513;SDS011;59335;46.652;21.272;2023-06-10T00:37:23;5.07;;;3.22;;
71513;SDS011;59335;46.652;21.272;2023-06-10T00:40:25;5.53;;;2.80;;
71513;SDS011;59335;46.652;21.272;2023-06-10T00:43:28;4.78;;;2.95;;
71513;SDS011;59335;46.652;21.272;2023-06-10T00:46:30;5.13;;;3.13;;
71513;SDS011;59335;46.652;21.272;2023-06-10T00:49:34;4.68;;;2.90;;
71513;SDS011;59335;46.652;21.272;2023-06-10T00:52:37;5.82;;;3.00;;
71513;SDS011;59335;46.652;21.272;2023-06-10T00:55:40;5.13;;;3.13;;
71513;SDS011;59335;46.652;21.272;2023-06-10T00:58:44;5.45;;;2.90;;
71513;SDS011;59335;46.652;21.272;2023-06-10T01:01:47;4.80;;;2.83;;
71513;SDS011;59335;46.652;21.272;2023-06-10T01:04:49;4.47;;;2.72;;
71513;SDS011;59335;46.652;21.272;2023-06-10T01:11:08;4.38;;;2.70;;
71513;SDS011;59335;46.652;21.272;2023-06-10T01:14:19;5.30;;;3.20;;
71513;SDS011;59335;46.652;21.272;2023-06-10T01:17:23;5.13;;;3.13;;
71513;SDS011;59335;46.652;21.272;2023-06-10T01:20:26;4.97;;;3.38;;
71513;SDS011;59335;46.652;21.272;2023-06-10T01:23:31;5.43;;;3.15;;
71513;SDS011;59335;46.652;21.272;2023-06-10T01:26:34;5.68;;;2.88;;
71513;SDS011;59335;46.652;21.272;2023-06-10T01:29:43;4.78;;;2.75;;
71513;SDS011;59335;46.652;21.272;2023-06-10T01:32:50;5.10;;;3.13;;
71513;SDS011;59335;46.652;21.272;2023-06-10T01:35:53;5.00;;;2.70;;
71513;SDS011;59335;46.652;21.272;2023-06-10T01:38:59;5.20;;;3.13;;
71513;SDS011;59335;46.652;21.272;2023-06-10T01:42:03;4.40;;;2.65;;
71513;SDS011;59335;46.652;21.272;2023-06-10T01:45:07;4.60;;;2.70;;
71513;SDS011;59335;46.652;21.272;2023-06-10T01:48:11;5.53;;;2.70;;
71513;SDS011;59335;46.652;21.272;2023-06-10T01:51:13;6.25;;;2.85;;
71513;SDS011;59335;46.652;21.272;2023-06-10T01:54:16;4.88;;;2.80;;
71513;SDS011;59335;46.652;21.272;2023-06-10T01:57:21;5.40;;;3.10;;
71513;SDS011;59335;46.652;21.272;2023-06-10T02:00:23;4.40;;;2.53;;
71513;SDS011;59335;46.652;21.272;2023-06-10T02:03:26;4.63;;;2.63;;
71513;SDS011;59335;46.652;21.272;2023-06-10T02:06:29;5.85;;;2.97;;
71513;SDS011;59335;46.652;21.272;2023-06-10T02:09:32;5.45;;;2.60;;
71513;SDS011;59335;46.652;21.272;2023-06-10T02:12:37;5.30;;;3.15;;
71513;SDS011;59335;46.652;21.272;2023-06-10T02:15:39;4.65;;;2.85;;
71513;SDS011;59335;46.652;21.272;2023-06-10T02:18:43;4.00;;;2.50;;
71513;SDS011;59335;46.652;21.272;2023-06-10T02:21:46;4.63;;;2.63;;
71513;SDS011;59335;46.652;21.272;2023-06-10T02:24:49;5.60;;;2.90;;
71513;SDS011;59335;46.652;21.272;2023-06-10T02:27:52;5.40;;;2.50;;
71513;SDS011;59335;46.652;21.272;2023-06-10T02:30:54;4.70;;;2.63;;
71513;SDS011;59335;46.652;21.272;2023-06-10T02:34:00;5.10;;;3.10;;
71513;SDS011;59335;46.652;21.272;2023-06-10T02:37:03;5.18;;;2.90;;
71513;SDS011;59335;46.652;21.272;2023-06-10T02:40:06;6.13;;;2.90;;
71513;SDS011;59335;46.652;21.272;2023-06-10T02:43:09;6.15;;;2.85;;
71513;SDS011;59335;46.652;21.272;2023-06-10T02:46:12;5.40;;;2.80;;
71513;SDS011;59335;46.652;21.272;2023-06-10T02:49:16;4.53;;;2.70;;
71513;SDS011;59335;46.652;21.272;2023-06-10T02:52:20;5.35;;;2.70;;
71513;SDS011;59335;46.652;21.272;2023-06-10T02:55:24;5.13;;;2.65;;
71513;SDS011;59335;46.652;21.272;2023-06-10T02:58:34;3.75;;;2.22;;
71513;SDS011;59335;46.652;21.272;2023-06-10T03:01:38;4.82;;;2.58;;
71513;SDS011;59335;46.652;21.272;2023-06-10T03:04:44;4.70;;;2.40;;
71513;SDS011;59335;46.652;21.272;2023-06-10T03:07:51;4.20;;;2.60;;
71513;SDS011;59335;46.652;21.272;2023-06-10T03:10:54;5.22;;;2.35;;
71513;SDS011;59335;46.652;21.272;2023-06-10T03:13:57;4.63;;;2.88;;
71513;SDS011;59335;46.652;21.272;2023-06-10T03:17:02;5.35;;;2.70;;
71513;SDS011;59335;46.652;21.272;2023-06-10T03:20:07;5.27;;;2.80;;
71513;SDS011;59335;46.652;21.272;2023-06-10T03:23:15;5.10;;;2.90;;
71513;SDS011;59335;46.652;21.272;2023-06-10T03:26:18;5.18;;;2.60;;
71513;SDS011;59335;46.652;21.272;2023-06-10T03:29:25;5.28;;;2.75;;
71513;SDS011;59335;46.652;21.272;2023-06-10T03:32:29;5.75;;;2.60;;
71513;SDS011;59335;46.652;21.272;2023-06-10T03:35:32;4.87;;;2.50;;
71513;SDS011;59335;46.652;21.272;2023-06-10T03:38:35;4.65;;;2.70;;
71513;SDS011;59335;46.652;21.272;2023-06-10T03:41:39;4.35;;;2.67;;
71513;SDS011;59335;46.652;21.272;2023-06-10T03:44:43;4.55;;;2.65;;
71513;SDS011;59335;46.652;21.272;2023-06-10T03:47:46;4.60;;;2.70;;
71513;SDS011;59335;46.652;21.272;2023-06-10T03:50:53;4.50;;;2.47;;
71513;SDS011;59335;46.652;21.272;2023-06-10T03:53:57;5.43;;;2.72;;
71513;SDS011;59335;46.652;21.272;2023-06-10T03:57:00;6.35;;;2.80;;
71513;SDS011;59335;46.652;21.272;2023-06-10T04:00:05;5.15;;;2.88;;
71513;SDS011;59335;46.652;21.272;2023-06-10T04:03:16;6.30;;;2.83;;
71513;SDS011;59335;46.652;21.272;2023-06-10T04:06:21;4.17;;;2.50;;
71513;SDS011;59335;46.652;21.272;2023-06-10T04:09:24;4.85;;;2.60;;
71513;SDS011;59335;46.652;21.272;2023-06-10T04:12:27;4.85;;;2.45;;
71513;SDS011;59335;46.652;21.272;2023-06-10T04:15:30;3.92;;;2.15;;
71513;SDS011;59335;46.652;21.272;2023-06-10T04:18:39;5.93;;;2.67;;
71513;SDS011;59335;46.652;21.272;2023-06-10T04:21:43;4.73;;;2.60;;
71513;SDS011;59335;46.652;21.272;2023-06-10T04:24:46;6.32;;;2.60;;
71513;SDS011;59335;46.652;21.272;2023-06-10T04:27:49;5.90;;;2.78;;
71513;SDS011;59335;46.652;21.272;2023-06-10T04:30:51;5.45;;;2.60;;
71513;SDS011;59335;46.652;21.272;2023-06-10T04:33:54;4.70;;;2.55;;
71513;SDS011;59335;46.652;21.272;2023-06-10T04:36:58;5.13;;;2.70;;
71513;SDS011;59335;46.652;21.272;2023-06-10T04:40:01;5.88;;;2.75;;
71513;SDS011;59335;46.652;21.272;2023-06-10T04:43:05;4.55;;;2.65;;
71513;SDS011;59335;46.652;21.272;2023-06-10T04:46:08;4.97;;;2.30;;
71513;SDS011;59335;46.652;21.272;2023-06-10T04:49:12;4.85;;;2.63;;
71513;SDS011;59335;46.652;21.272;2023-06-10T04:52:18;4.40;;;2.70;;
71513;SDS011;59335;46.652;21.272;2023-06-10T04:55:21;3.95;;;2.40;;
71513;SDS011;59335;46.652;21.272;2023-06-10T04:58:23;5.70;;;2.47;;
71513;SDS011;59335;46.652;21.272;2023-06-10T05:01:26;4.40;;;2.55;;
71513;SDS011;59335;46.652;21.272;2023-06-10T05:04:30;5.53;;;3.10;;
71513;SDS011;59335;46.652;21.272;2023-06-10T05:07:32;4.93;;;2.30;;
71513;SDS011;59335;46.652;21.272;2023-06-10T05:10:35;4.30;;;2.40;;
71513;SDS011;59335;46.652;21.272;2023-06-10T05:13:38;5.18;;;2.72;;
71513;SDS011;59335;46.652;21.272;2023-06-10T05:16:42;4.47;;;2.67;;
71513;SDS011;59335;46.652;21.272;2023-06-10T05:19:45;4.78;;;2.60;;
71513;SDS011;59335;46.652;21.272;2023-06-10T05:22:49;5.00;;;2.70;;
71513;SDS011;59335;46.652;21.272;2023-06-10T05:25:51;4.57;;;2.70;;
71513;SDS011;59335;46.652;21.272;2023-06-10T05:28:54;4.90;;;2.42;;
71513;SDS011;59335;46.652;21.272;2023-06-10T05:31:57;3.88;;;2.42;;
71513;SDS011;59335;46.652;21.272;2023-06-10T05:35:02;5.65;;;2.50;;
71513;SDS011;59335;46.652;21.272;2023-06-10T05:38:07;4.93;;;2.63;;
71513;SDS011;59335;46.652;21.272;2023-06-10T05:41:09;6.20;;;2.65;;
71513;SDS011;59335;46.652;21.272;2023-06-10T05:44:12;5.00;;;2.40;;
71513;SDS011;59335;46.652;21.272;2023-06-10T05:47:15;6.15;;;2.60;;
71513;SDS011;59335;46.652;21.272;2023-06-10T05:50:18;4.78;;;2.55;;
71513;SDS011;59335;46.652;21.272;2023-06-10T05:53:20;4.73;;;2.73;;
71513;SDS011;59335;46.652;21.272;2023-06-10T05:56:23;3.83;;;2.10;;
71513;SDS011;59335;46.652;21.272;2023-06-10T05:59:26;4.40;;;2.47;;
71513;SDS011;59335;46.652;21.272;2023-06-10T06:02:29;6.72;;;2.50;;
71513;SDS011;59335;46.652;21.272;2023-06-10T06:05:31;4.82;;;2.70;;
71513;SDS011;59335;46.652;21.272;2023-06-10T06:08:37;4.20;;;2.60;;
71513;SDS011;59335;46.652;21.272;2023-06-10T06:11:39;4.18;;;2.40;;
71513;SDS011;59335;46.652;21.272;2023-06-10T06:14:43;3.97;;;2.20;;
71513;SDS011;59335;46.652;21.272;2023-06-10T06:17:47;4.40;;;2.42;;
71513;SDS011;59335;46.652;21.272;2023-06-10T06:20:49;4.22;;;2.40;;
71513;SDS011;59335;46.652;21.272;2023-06-10T06:23:52;4.50;;;2.43;;
71513;SDS011;59335;46.652;21.272;2023-06-10T06:26:55;4.40;;;2.60;;
71513;SDS011;59335;46.652;21.272;2023-06-10T06:29:57;4.35;;;2.55;;
71513;SDS011;59335;46.652;21.272;2023-06-10T06:33:01;4.40;;;2.50;;
71513;SDS011;59335;46.652;21.272;2023-06-10T06:36:04;3.70;;;2.22;;
71513;SDS011;59335;46.652;21.272;2023-06-10T06:39:07;4.10;;;2.50;;
71513;SDS011;59335;46.652;21.272;2023-06-10T06:42:09;4.13;;;2.58;;
71513;SDS011;59335;46.652;21.272;2023-06-10T06:45:31;5.55;;;2.75;;
71513;SDS011;59335;46.652;21.272;2023-06-10T06:48:36;4.57;;;2.33;;
71513;SDS011;59335;46.652;21.272;2023-06-10T06:51:38;3.95;;;2.42;;
71513;SDS011;59335;46.652;21.272;2023-06-10T06:54:41;3.67;;;2.30;;
71513;SDS011;59335;46.652;21.272;2023-06-10T06:57:44;4.35;;;2.20;;
71513;SDS011;59335;46.652;21.272;2023-06-10T07:00:47;3.83;;;2.17;;
71513;SDS011;59335;46.652;21.272;2023-06-10T07:03:50;4.15;;;2.40;;
71513;SDS011;59335;46.652;21.272;2023-06-10T07:06:53;4.57;;;2.55;;
71513;SDS011;59335;46.652;21.272;2023-06-10T07:09:55;4.43;;;2.60;;
71513;SDS011;59335;46.652;21.272;2023-06-10T07:12:58;3.75;;;2.38;;
71513;SDS011;59335;46.652;21.272;2023-06-10T07:16:00;4.13;;;2.30;;
71513;SDS011;59335;46.652;21.272;2023-06-10T07:19:03;3.85;;;2.30;;
71513;SDS011;59335;46.652;21.272;2023-06-10T07:22:07;4.20;;;2.33;;
71513;SDS011;59335;46.652;21.272;2023-06-10T07:25:11;4.00;;;2.30;;
71513;SDS011;59335;46.652;21.272;2023-06-10T07:28:14;5.38;;;2.47;;
71513;SDS011;59335;46.652;21.272;2023-06-10T07:31:16;4.63;;;2.33;;
71513;SDS011;59335;46.652;21.272;2023-06-10T07:34:19;4.45;;;2.58;;
71513;SDS011;59335;46.652;21.272;2023-06-10T07:37:22;4.10;;;2.67;;
71513;SDS011;59335;46.652;21.272;2023-06-10T07:40:26;5.53;;;2.47;;
71513;SDS011;59335;46.652;21.272;2023-06-10T07:43:29;4.18;;;2.40;;
71513;SDS011;59335;46.652;21.272;2023-06-10T07:46:32;4.38;;;2.45;;
71513;SDS011;59335;46.652;21.272;2023-06-10T07:49:35;4.05;;;2.53;;
71513;SDS011;59335;46.652;21.272;2023-06-10T07:52:37;3.95;;;2.20;;
71513;SDS011;59335;46.652;21.272;2023-06-10T07:55:40;5.20;;;2.97;;
71513;SDS011;59335;46.652;21.272;2023-06-10T07:58:42;4.68;;;2.72;;
71513;SDS011;59335;46.652;21.272;2023-06-10T08:01:45;5.03;;;2.58;;
71513;SDS011;59335;46.652;21.272;2023-06-10T08:04:48;4.30;;;2.65;;
71513;SDS011;59335;46.652;21.272;2023-06-10T08:07:51;4.47;;;2.35;;
71513;SDS011;59335;46.652;21.272;2023-06-10T08:10:54;4.50;;;2.77;;
71513;SDS011;59335;46.652;21.272;2023-06-10T08:13:58;4.43;;;2.60;;
71513;SDS011;59335;46.652;21.272;2023-06-10T08:17:00;3.83;;;2.20;;
71513;SDS011;59335;46.652;21.272;2023-06-10T08:20:03;4.32;;;2.45;;
71513;SDS011;59335;46.652;21.272;2023-06-10T08:23:06;4.95;;;2.70;;
71513;SDS011;59335;46.652;21.272;2023-06-10T08:26:09;5.60;;;2.20;;
71513;SDS011;59335;46.652;21.272;2023-06-10T08:29:12;4.47;;;2.25;;
71513;SDS011;59335;46.652;21.272;2023-06-10T08:32:15;4.53;;;2.60;;
71513;SDS011;59335;46.652;21.272;2023-06-10T08:35:17;3.92;;;2.22;;
71513;SDS011;59335;46.652;21.272;2023-06-10T08:38:20;4.75;;;2.22;;
71513;SDS011;59335;46.652;21.272;2023-06-10T08:41:23;4.90;;;2.33;;
71513;SDS011;59335;46.652;21.272;2023-06-10T08:44:29;4.20;;;2.40;;
71513;SDS011;59335;46.652;21.272;2023-06-10T08:47:32;4.40;;;2.60;;
71513;SDS011;59335;46.652;21.272;2023-06-10T08:50:40;3.70;;;2.40;;
71513;SDS011;59335;46.652;21.272;2023-06-10T08:53:54;4.45;;;2.45;;
71513;SDS011;59335;46.652;21.272;2023-06-10T08:57:03;4.23;;;2.40;;
71513;SDS011;59335;46.652;21.272;2023-06-10T09:00:08;4.55;;;2.50;;
71513;SDS011;59335;46.652;21.272;2023-06-10T09:03:12;4.25;;;2.30;;
71513;SDS011;59335;46.652;21.272;2023-06-10T09:06:16;4.82;;;2.83;;
71513;SDS011;59335;46.652;21.272;2023-06-10T09:09:20;3.80;;;2.20;;
71513;SDS011;59335;46.652;21.272;2023-06-10T09:12:24;4.17;;;2.23;;
71513;SDS011;59335;46.652;21.272;2023-06-10T09:15:27;3.67;;;2.10;;
71513;SDS011;59335;46.652;21.272;2023-06-10T09:18:30;3.95;;;2.50;;
71513;SDS011;59335;46.652;21.272;2023-06-10T09:21:33;4.47;;;2.40;;
71513;SDS011;59335;46.652;21.272;2023-06-10T09:24:38;5.22;;;2.50;;
71513;SDS011;59335;46.652;21.272;2023-06-10T09:31:04;3.85;;;2.20;;
71513;SDS011;59335;46.652;21.272;2023-06-10T09:34:08;3.67;;;2.13;;
71513;SDS011;59335;46.652;21.272;2023-06-10T09:37:19;4.60;;;2.80;;
71513;SDS011;59335;46.652;21.272;2023-06-10T09:40:23;4.00;;;2.30;;
71513;SDS011;59335;46.652;21.272;2023-06-10T09:43:38;3.93;;;1.93;;
71513;SDS011;59335;46.652;21.272;2023-06-10T09:46:41;4.05;;;2.40;;
71513;SDS011;59335;46.652;21.272;2023-06-10T09:49:46;4.63;;;2.50;;
71513;SDS011;59335;46.652;21.272;2023-06-10T09:52:50;4.15;;;2.72;;
71513;SDS011;59335;46.652;21.272;2023-06-10T09:55:53;4.10;;;2.55;;
71513;SDS011;59335;46.652;21.272;2023-06-10T09:58:56;4.27;;;2.57;;
71513;SDS011;59335;46.652;21.272;2023-06-10T10:01:58;4.78;;;2.30;;
71513;SDS011;59335;46.652;21.272;2023-06-10T10:05:03;4.15;;;2.25;;
71513;SDS011;59335;46.652;21.272;2023-06-10T10:08:09;4.93;;;2.40;;
71513;SDS011;59335;46.652;21.272;2023-06-10T10:11:12;4.85;;;2.45;;
71513;SDS011;59335;46.652;21.272;2023-06-10T10:14:15;3.53;;;2.13;;
71513;SDS011;59335;46.652;21.272;2023-06-10T10:17:19;3.60;;;2.10;;
71513;SDS011;59335;46.652;21.272;2023-06-10T10:20:24;4.15;;;2.30;;
71513;SDS011;59335;46.652;21.272;2023-06-10T10:23:35;3.88;;;2.15;;
71513;SDS011;59335;46.652;21.272;2023-06-10T10:26:42;4.07;;;2.45;;
71513;SDS011;59335;46.652;21.272;2023-06-10T10:29:48;4.77;;;2.20;;
71513;SDS011;59335;46.652;21.272;2023-06-10T10:33:04;4.13;;;2.45;;
71513;SDS011;59335;46.652;21.272;2023-06-10T10:36:12;4.13;;;2.22;;
71513;SDS011;59335;46.652;21.272;2023-06-10T10:39:16;4.85;;;2.15;;
71513;SDS011;59335;46.652;21.272;2023-06-10T10:42:19;4.43;;;2.20;;
71513;SDS011;59335;46.652;21.272;2023-06-10T10:45:22;3.70;;;2.27;;
71513;SDS011;59335;46.652;21.272;2023-06-10T10:48:25;4.60;;;2.35;;
71513;SDS011;59335;46.652;21.272;2023-06-10T10:51:33;3.97;;;2.20;;
71513;SDS011;59335;46.652;21.272;2023-06-10T10:54:36;3.58;;;1.98;;
71513;SDS011;59335;46.652;21.272;2023-06-10T10:57:42;4.47;;;2.20;;
71513;SDS011;59335;46.652;21.272;2023-06-10T11:00:44;3.70;;;2.10;;
71513;SDS011;59335;46.652;21.272;2023-06-10T11:03:48;3.97;;;2.50;;
71513;SDS011;59335;46.652;21.272;2023-06-10T11:06:52;3.67;;;2.25;;
71513;SDS011;59335;46.652;21.272;2023-06-10T11:09:59;4.18;;;2.38;;
71513;SDS011;59335;46.652;21.272;2023-06-10T11:13:05;3.47;;;2.00;;
71513;SDS011;59335;46.652;21.272;2023-06-10T11:16:28;3.93;;;2.13;;
71513;SDS011;59335;46.652;21.272;2023-06-10T11:19:34;4.32;;;2.53;;
71513;SDS011;59335;46.652;21.272;2023-06-10T11:22:58;4.93;;;2.50;;
71513;SDS011;59335;46.652;21.272;2023-06-10T11:29:20;4.55;;;2.50;;
71513;SDS011;59335;46.652;21.272;2023-06-10T11:32:24;4.73;;;2.50;;
71513;SDS011;59335;46.652;21.272;2023-06-10T11:35:34;4.43;;;2.40;;
71513;SDS011;59335;46.652;21.272;2023-06-10T11:38:38;4.32;;;2.30;;
71513;SDS011;59335;46.652;21.272;2023-06-10T11:41:41;3.72;;;2.10;;
71513;SDS011;59335;46.652;21.272;2023-06-10T11:44:50;3.97;;;2.22;;
71513;SDS011;59335;46.652;21.272;2023-06-10T11:47:59;3.90;;;2.30;;
71513;SDS011;59335;46.652;21.272;2023-06-10T11:51:06;4.40;;;2.80;;
71513;SDS011;59335;46.652;21.272;2023-06-10T11:54:09;4.43;;;2.20;;
71513;SDS011;59335;46.652;21.272;2023-06-10T11:57:12;4.38;;;2.50;;
71513;SDS011;59335;46.652;21.272;2023-06-10T12:00:15;4.00;;;2.30;;
71513;SDS011;59335;46.652;21.272;2023-06-10T12:03:18;3.77;;;2.10;;
71513;SDS011;59335;46.652;21.272;2023-06-10T12:06:22;4.63;;;2.58;;
71513;SDS011;59335;46.652;21.272;2023-06-10T12:12:35;4.20;;;2.10;;
71513;SDS011;59335;46.652;21.272;2023-06-10T12:15:39;3.88;;;2.20;;
71513;SDS011;59335;46.652;21.272;2023-06-10T12:18:42;4.03;;;2.40;;
71513;SDS011;59335;46.652;21.272;2023-06-10T12:21:47;4.00;;;2.20;;
71513;SDS011;59335;46.652;21.272;2023-06-10T12:25:02;3.70;;;2.20;;
71513;SDS011;59335;46.652;21.272;2023-06-10T12:28:09;3.88;;;2.30;;
71513;SDS011;59335;46.652;21.272;2023-06-10T12:31:12;3.55;;;2.08;;
71513;SDS011;59335;46.652;21.272;2023-06-10T12:34:15;4.33;;;2.20;;
71513;SDS011;59335;46.652;21.272;2023-06-10T12:37:18;3.67;;;2.10;;
71513;SDS011;59335;46.652;21.272;2023-06-10T12:40:25;3.90;;;2.20;;
71513;SDS011;59335;46.652;21.272;2023-06-10T12:43:34;3.72;;;2.05;;
71513;SDS011;59335;46.652;21.272;2023-06-10T12:46:37;3.97;;;2.30;;
71513;SDS011;59335;46.652;21.272;2023-06-10T12:49:40;3.93;;;2.20;;
71513;SDS011;59335;46.652;21.272;2023-06-10T12:52:43;4.18;;;2.30;;
71513;SDS011;59335;46.652;21.272;2023-06-10T12:55:45;3.92;;;2.33;;
71513;SDS011;59335;46.652;21.272;2023-06-10T12:58:49;3.80;;;2.40;;
71513;SDS011;59335;46.652;21.272;2023-06-10T13:01:52;3.80;;;2.00;;
71513;SDS011;59335;46.652;21.272;2023-06-10T13:04:56;4.40;;;2.30;;
71513;SDS011;59335;46.652;21.272;2023-06-10T13:07:59;4.65;;;2.35;;
71513;SDS011;59335;46.652;21.272;2023-06-10T13:11:01;3.58;;;1.95;;
71513;SDS011;59335;46.652;21.272;2023-06-10T13:14:04;3.92;;;2.25;;
71513;SDS011;59335;46.652;21.272;2023-06-10T13:17:08;3.38;;;2.00;;
71513;SDS011;59335;46.652;21.272;2023-06-10T13:20:11;3.77;;;2.27;;
71513;SDS011;59335;46.652;21.272;2023-06-10T13:23:13;4.15;;;2.45;;
71513;SDS011;59335;46.652;21.272;2023-06-10T13:26:16;4.82;;;2.30;;
71513;SDS011;59335;46.652;21.272;2023-06-10T13:29:19;4.07;;;2.20;;
71513;SDS011;59335;46.652;21.272;2023-06-10T13:32:22;4.40;;;2.28;;
71513;SDS011;59335;46.652;21.272;2023-06-10T13:35:24;3.93;;;2.10;;
71513;SDS011;59335;46.652;21.272;2023-06-10T13:38:27;4.05;;;2.30;;
71513;SDS011;59335;46.652;21.272;2023-06-10T13:41:30;4.68;;;2.60;;
71513;SDS011;59335;46.652;21.272;2023-06-10T13:44:32;4.53;;;2.38;;
71513;SDS011;59335;46.652;21.272;2023-06-10T13:47:38;3.78;;;2.22;;
71513;SDS011;59335;46.652;21.272;2023-06-10T13:50:40;3.93;;;2.37;;
71513;SDS011;59335;46.652;21.272;2023-06-10T13:53:47;4.10;;;2.42;;
71513;SDS011;59335;46.652;21.272;2023-06-10T13:56:50;3.70;;;2.10;;
71513;SDS011;59335;46.652;21.272;2023-06-10T13:59:52;3.50;;;2.00;;
71513;SDS011;59335;46.652;21.272;2023-06-10T14:02:55;3.45;;;2.15;;
71513;SDS011;59335;46.652;21.272;2023-06-10T14:05:58;4.27;;;2.43;;
71513;SDS011;59335;46.652;21.272;2023-06-10T14:09:00;3.65;;;2.20;;
71513;SDS011;59335;46.652;21.272;2023-06-10T14:12:03;3.78;;;2.13;;
71513;SDS011;59335;46.652;21.272;2023-06-10T14:15:07;4.05;;;2.25;;
71513;SDS011;59335;46.652;21.272;2023-06-10T14:18:10;3.67;;;1.92;;
71513;SDS011;59335;46.652;21.272;2023-06-10T14:21:13;3.53;;;2.13;;
71513;SDS011;59335;46.652;21.272;2023-06-10T14:24:16;3.53;;;1.95;;
71513;SDS011;59335;46.652;21.272;2023-06-10T14:27:18;4.30;;;2.38;;
71513;SDS011;59335;46.652;21.272;2023-06-10T14:30:22;4.07;;;2.10;;
71513;SDS011;59335;46.652;21.272;2023-06-10T14:33:24;4.18;;;2.40;;
71513;SDS011;59335;46.652;21.272;2023-06-10T14:36:27;3.97;;;2.30;;
71513;SDS011;59335;46.652;21.272;2023-06-10T14:39:30;4.22;;;2.25;;
71513;SDS011;59335;46.652;21.272;2023-06-10T14:42:32;3.63;;;2.22;;
71513;SDS011;59335;46.652;21.272;2023-06-10T14:45:36;4.30;;;2.40;;
71513;SDS011;59335;46.652;21.272;2023-06-10T14:48:39;3.55;;;2.20;;
71513;SDS011;59335;46.652;21.272;2023-06-10T14:51:42;3.60;;;2.20;;
71513;SDS011;59335;46.652;21.272;2023-06-10T14:54:44;3.95;;;2.20;;
71513;SDS011;59335;46.652;21.272;2023-06-10T14:57:47;4.10;;;2.10;;
71513;SDS011;59335;46.652;21.272;2023-06-10T15:00:50;3.97;;;2.15;;
71513;SDS011;59335;46.652;21.272;2023-06-10T15:03:53;3.85;;;2.00;;
71513;SDS011;59335;46.652;21.272;2023-06-10T15:06:56;4.60;;;2.03;;
71513;SDS011;59335;46.652;21.272;2023-06-10T15:09:58;3.15;;;1.90;;
71513;SDS011;59335;46.652;21.272;2023-06-10T15:13:01;3.85;;;2.10;;
71513;SDS011;59335;46.652;21.272;2023-06-10T15:16:03;3.30;;;2.15;;
71513;SDS011;59335;46.652;21.272;2023-06-10T15:19:06;4.13;;;2.10;;
71513;SDS011;59335;46.652;21.272;2023-06-10T15:22:10;3.10;;;2.00;;
71513;SDS011;59335;46.652;21.272;2023-06-10T15:25:15;3.70;;;2.28;;
71513;SDS011;59335;46.652;21.272;2023-06-10T15:28:32;4.32;;;2.47;;
71513;SDS011;59335;46.652;21.272;2023-06-10T15:31:34;3.78;;;2.13;;
71513;SDS011;59335;46.652;21.272;2023-06-10T15:34:37;3.85;;;2.28;;
71513;SDS011;59335;46.652;21.272;2023-06-10T15:37:40;4.23;;;2.23;;
71513;SDS011;59335;46.652;21.272;2023-06-10T15:40:43;3.83;;;2.17;;
71513;SDS011;59335;46.652;21.272;2023-06-10T15:43:46;4.28;;;2.10;;
71513;SDS011;59335;46.652;21.272;2023-06-10T15:46:48;3.72;;;2.28;;
71513;SDS011;59335;46.652;21.272;2023-06-10T15:49:52;3.63;;;2.20;;
71513;SDS011;59335;46.652;21.272;2023-06-10T15:52:55;3.50;;;2.17;;
71513;SDS011;59335;46.652;21.272;2023-06-10T15:55:57;3.95;;;2.35;;
71513;SDS011;59335;46.652;21.272;2023-06-10T15:59:00;3.75;;;2.03;;
71513;SDS011;59335;46.652;21.272;2023-06-10T16:02:03;4.25;;;2.20;;
71513;SDS011;59335;46.652;21.272;2023-06-10T16:05:06;3.33;;;2.08;;
71513;SDS011;59335;46.652;21.272;2023-06-10T16:08:09;3.20;;;2.00;;
71513;SDS011;59335;46.652;21.272;2023-06-10T16:11:12;3.83;;;2.13;;
71513;SDS011;59335;46.652;21.272;2023-06-10T16:14:15;5.10;;;2.35;;
71513;SDS011;59335;46.652;21.272;2023-06-10T16:17:18;4.47;;;2.50;;
71513;SDS011;59335;46.652;21.272;2023-06-10T16:20:20;3.78;;;2.30;;
71513;SDS011;59335;46.652;21.272;2023-06-10T16:23:23;4.60;;;2.40;;
71513;SDS011;59335;46.652;21.272;2023-06-10T16:26:25;3.33;;;2.10;;
71513;SDS011;59335;46.652;21.272;2023-06-10T16:29:28;4.47;;;2.55;;
71513;SDS011;59335;46.652;21.272;2023-06-10T16:32:31;4.22;;;2.30;;
71513;SDS011;59335;46.652;21.272;2023-06-10T16:35:34;3.75;;;2.00;;
71513;SDS011;59335;46.652;21.272;2023-06-10T16:38:37;4.53;;;2.40;;
71513;SDS011;59335;46.652;21.272;2023-06-10T16:41:39;3.85;;;2.20;;
71513;SDS011;59335;46.652;21.272;2023-06-10T16:44:42;4.30;;;2.25;;
71513;SDS011;59335;46.652;21.272;2023-06-10T16:47:45;4.35;;;2.15;;
71513;SDS011;59335;46.652;21.272;2023-06-10T16:50:47;3.50;;;2.05;;
71513;SDS011;59335;46.652;21.272;2023-06-10T16:53:50;4.13;;;2.13;;
71513;SDS011;59335;46.652;21.272;2023-06-10T16:56:53;4.07;;;2.00;;
71513;SDS011;59335;46.652;21.272;2023-06-10T16:59:56;4.60;;;2.67;;
71513;SDS011;59335;46.652;21.272;2023-06-10T17:02:58;3.67;;;2.33;;
71513;SDS011;59335;46.652;21.272;2023-06-10T17:06:02;3.75;;;2.17;;
71513;SDS011;59335;46.652;21.272;2023-06-10T17:09:04;3.30;;;2.03;;
71513;SDS011;59335;46.652;21.272;2023-06-10T17:12:07;3.88;;;2.10;;
71513;SDS011;59335;46.652;21.272;2023-06-10T17:15:10;4.18;;;2.35;;
71513;SDS011;59335;46.652;21.272;2023-06-10T17:18:13;4.18;;;2.20;;
71513;SDS011;59335;46.652;21.272;2023-06-10T17:21:16;4.07;;;2.20;;
71513;SDS011;59335;46.652;21.272;2023-06-10T17:24:18;4.60;;;2.30;;
71513;SDS011;59335;46.652;21.272;2023-06-10T17:27:21;3.60;;;2.00;;
71513;SDS011;59335;46.652;21.272;2023-06-10T17:30:27;4.25;;;2.60;;
71513;SDS011;59335;46.652;21.272;2023-06-10T17:33:29;3.60;;;2.10;;
71513;SDS011;59335;46.652;21.272;2023-06-10T17:36:32;4.25;;;2.28;;
71513;SDS011;59335;46.652;21.272;2023-06-10T17:39:34;3.77;;;2.07;;
71513;SDS011;59335;46.652;21.272;2023-06-10T17:42:37;3.97;;;2.30;;
71513;SDS011;59335;46.652;21.272;2023-06-10T17:45:40;3.80;;;2.20;;
71513;SDS011;59335;46.652;21.272;2023-06-10T17:48:42;3.78;;;2.17;;
71513;SDS011;59335;46.652;21.272;2023-06-10T17:51:45;4.03;;;2.20;;
71513;SDS011;59335;46.652;21.272;2023-06-10T17:54:47;3.70;;;2.17;;
71513;SDS011;59335;46.652;21.272;2023-06-10T17:57:50;3.65;;;2.30;;
71513;SDS011;59335;46.652;21.272;2023-06-10T18:00:52;3.83;;;2.10;;
71513;SDS011;59335;46.652;21.272;2023-06-10T18:03:55;4.03;;;2.25;;
71513;SDS011;59335;46.652;21.272;2023-06-10T18:07:01;3.60;;;2.20;;
71513;SDS011;59335;46.652;21.272;2023-06-10T18:10:03;3.30;;;2.10;;
71513;SDS011;59335;46.652;21.272;2023-06-10T18:13:07;4.60;;;2.20;;
71513;SDS011;59335;46.652;21.272;2023-06-10T18:16:09;3.83;;;2.00;;
71513;SDS011;59335;46.652;21.272;2023-06-10T18:19:12;4.10;;;2.40;;
71513;SDS011;59335;46.652;21.272;2023-06-10T18:22:17;3.95;;;2.33;;